Aviation Digital Data Service (ADDS)

Output produced by METARs form (2052 UTC 01 October 2022)
found at http://www.aviationweather.gov/metar/data/
 
METAR text: RJAA 012030Z AUTO VRB02KT 9999 NCD 17/16 Q1019 NOSIG RMK A3010
Conditions at: RJAA (NARITA INTL , JP) observed 2030 UTC 01 October 2022
Temperature: 17.0°C (63°F)
Dewpoint: 16.0°C (61°F) [RH = 94%]
Pressure (altimeter): 30.09 inches Hg (1019.0 mb)
Winds: variable direction winds at 2 MPH (2 knots; 1.0 m/s)
Visibility: 6 or more miles (10+ km)
Ceiling: at least 12,000 feet AGL
Clouds: sky clear below 12,000 feet AGL
Weather: no significant weather observed at this time

Forecast for: RJAA (NARITA INTL , JP)
Text: TAF RJAA 011711Z 0118/0300 03010KT 9999 FEW030
Forecast period: 1800 UTC 01 October 2022 to 0000 UTC 03 October 2022
Forecast type: FROM: standard forecast or significant change
Winds: from the NNE (30 degrees) at 12 MPH (10 knots; 5.1 m/s)
Visibility: 6 or more miles (10+ km)
Ceiling: at least 12,000 feet AGL
Clouds: few clouds at 3000 feet AGL
Weather: no significant weather forecast for this period